Woodland Park, Indiana
Current Conditions -  °F | °C
As of 7:35 PM on Monday 20 Oct 2014 (Local Time) from KANQ Reporting Station
Overcast Overcast  
Wind Chill: 55°   Ceiling: 6000
Heat Index: 55°   Visibility: 10mi
Dew Point: 48°   Wind: 9mph
Humidity: 77%   Direction: 300°WNW
Pressure: 29.86"   Gusts: NA
Location:  41.5677°N, 85.3125°W
Report Text: KANQ 202335Z AUTO 30008KT 10SM OVC060 13/09 A2986 RMK
Loading
Personal Weather Stations






























Interactive Weather Map
Tropical Storm Tracking
New forecast layout! Learn more

10-Day Weather Forecast

Advertisements
Track Severe Weather on mobile